createdAt,value
2022-08-05T00:00:54.487Z,21.80
2022-08-05T00:03:21.796Z,21.60
2022-08-05T00:06:06.562Z,21.40
2022-08-05T00:08:36.558Z,21.20
2022-08-05T00:11:07.577Z,21.20
2022-08-05T00:13:53.192Z,21.30
2022-08-05T00:16:35.352Z,21.40
2022-08-05T00:19:02.725Z,21.70
2022-08-05T00:21:30.544Z,21.80
2022-08-05T00:24:09.860Z,21.90
2022-08-05T00:26:38.557Z,21.90
2022-08-05T00:29:05.445Z,22.00
2022-08-05T00:31:53.046Z,22.10
2022-08-05T00:34:54.017Z,22.00
2022-08-05T00:37:12.028Z,22.00
2022-08-05T00:39:57.444Z,22.00
2022-08-05T00:42:32.855Z,22.00
2022-08-05T00:45:00.678Z,22.00
2022-08-05T00:47:31.713Z,21.90
2022-08-05T00:50:14.702Z,21.80
2022-08-05T00:52:42.077Z,21.90
2022-08-05T00:55:12.516Z,21.90
2022-08-05T00:57:55.421Z,21.90
2022-08-05T01:00:31.931Z,21.90
2022-08-05T01:03:01.047Z,21.80
2022-08-05T01:05:28.153Z,21.70
2022-08-05T01:08:30.392Z,21.70
2022-08-05T01:10:56.229Z,21.80
2022-08-05T01:13:57.510Z,21.60
2022-08-05T01:16:29.070Z,21.20
2022-08-05T01:19:03.884Z,21.10
2022-08-05T01:22:02.714Z,21.20
2022-08-05T01:25:00.698Z,21.30
2022-08-05T01:28:04.416Z,21.20
2022-08-05T01:30:36.794Z,21.20
2022-08-05T01:33:09.526Z,21.20
2022-08-05T01:35:51.656Z,21.30
2022-08-05T01:38:24.727Z,21.40
2022-08-05T01:40:57.428Z,21.50
2022-08-05T01:43:26.568Z,21.50
2022-08-05T01:45:56.446Z,21.40
2022-08-05T01:48:26.077Z,21.50
2022-08-05T01:50:56.550Z,21.50
2022-08-05T01:53:54.648Z,21.50
2022-08-05T01:58:10.034Z,21.50
2022-08-05T01:59:06.514Z,21.50
2022-08-05T02:01:40.117Z,21.50
2022-08-05T02:04:10.330Z,21.40
2022-08-05T02:06:39.275Z,21.30
2022-08-05T02:09:07.195Z,21.40
2022-08-05T02:11:52.513Z,21.40
2022-08-05T02:15:04.275Z,21.50
2022-08-05T02:18:31.343Z,21.50
2022-08-05T02:20:33.502Z,21.40
2022-08-05T02:23:10.964Z,21.50
2022-08-05T02:25:49.980Z,21.50
2022-08-05T02:28:32.158Z,21.50
2022-08-05T02:31:14.421Z,21.50
2022-08-05T02:33:48.718Z,21.50
2022-08-05T02:36:27.407Z,21.40
2022-08-05T02:38:57.725Z,21.40
2022-08-05T02:41:28.561Z,21.40
2022-08-05T02:44:13.197Z,21.40
2022-08-05T02:46:58.473Z,21.50
2022-08-05T02:49:37.118Z,21.40
2022-08-05T02:52:09.260Z,21.40
2022-08-05T02:54:42.158Z,21.30
2022-08-05T02:58:20.432Z,21.30
2022-08-05T03:00:02.376Z,21.00
2022-08-05T03:02:33.899Z,20.90
2022-08-05T03:05:01.958Z,20.60
2022-08-05T03:08:00.102Z,20.20
2022-08-05T03:10:24.638Z,19.90
2022-08-05T03:12:54.035Z,20.10
2022-08-05T03:15:23.407Z,19.70
2022-08-05T03:17:55.949Z,19.40
2022-08-05T03:20:25.127Z,19.40
2022-08-05T03:22:57.221Z,19.70
2022-08-05T03:25:33.820Z,19.70
2022-08-05T03:28:14.103Z,19.60
2022-08-05T03:30:41.298Z,19.90
2022-08-05T03:33:09.757Z,20.00
2022-08-05T03:35:41.139Z,20.20
2022-08-05T03:38:11.847Z,20.30
2022-08-05T03:40:48.547Z,20.40
2022-08-05T03:44:08.272Z,20.60
2022-08-05T03:46:04.806Z,20.70
2022-08-05T03:48:35.066Z,20.70
2022-08-05T03:52:49.230Z,20.90
2022-08-05T03:55:52.963Z,20.90
2022-08-05T03:57:44.539Z,20.90
2022-08-05T04:00:16.603Z,20.80
2022-08-05T04:02:58.753Z,21.00
2022-08-05T04:05:34.906Z,21.00
2022-08-05T04:08:14.837Z,21.00
2022-08-05T04:10:55.523Z,21.00
2022-08-05T04:13:22.806Z,21.00
2022-08-05T04:15:53.019Z,21.10
2022-08-05T04:18:32.131Z,21.10
2022-08-05T04:21:02.055Z,21.10
2022-08-05T04:23:57.362Z,21.10
2022-08-05T04:26:18.650Z,21.20
2022-08-05T04:28:51.009Z,21.20
2022-08-05T04:31:19.506Z,21.10
2022-08-05T04:34:18.480Z,21.00
2022-08-05T04:36:46.471Z,21.00
2022-08-05T04:39:18.449Z,21.10
2022-08-05T04:41:45.809Z,21.00
2022-08-05T04:44:15.169Z,21.10
2022-08-05T04:46:48.518Z,21.10
2022-08-05T04:49:15.637Z,21.10
2022-08-05T04:51:45.570Z,21.10
2022-08-05T04:54:14.763Z,21.10
2022-08-05T04:56:41.954Z,21.20
2022-08-05T04:59:13.985Z,21.20
2022-08-05T05:02:07.692Z,21.20
2022-08-05T05:04:47.763Z,21.20
2022-08-05T05:07:17.145Z,21.10
2022-08-05T05:09:45.245Z,21.10
2022-08-05T05:12:12.457Z,21.10
2022-08-05T05:14:42.782Z,21.10
2022-08-05T05:17:23.460Z,21.10
2022-08-05T05:19:54.121Z,21.10
2022-08-05T05:22:24.137Z,21.10
2022-08-05T05:24:59.823Z,21.10
2022-08-05T05:27:44.545Z,21.20
2022-08-05T05:30:15.419Z,21.20
2022-08-05T05:32:42.650Z,21.20
2022-08-05T05:35:13.386Z,21.20
2022-08-05T05:38:00.380Z,21.20
2022-08-05T05:40:30.189Z,21.20
2022-08-05T05:42:59.735Z,21.30
2022-08-05T05:45:29.135Z,21.30
2022-08-05T05:48:05.461Z,21.30
2022-08-05T05:50:41.309Z,21.30
2022-08-05T05:53:22.484Z,21.30
2022-08-05T05:55:52.045Z,21.30
2022-08-05T05:58:31.529Z,21.30
2022-08-05T06:01:12.936Z,21.30
2022-08-05T06:04:00.488Z,21.30
2022-08-05T06:06:31.086Z,21.30
2022-08-05T06:08:58.640Z,21.30
2022-08-05T06:11:25.958Z,21.30
2022-08-05T06:13:53.977Z,21.20
2022-08-05T06:16:30.168Z,21.20
2022-08-05T06:19:01.170Z,21.20
2022-08-05T06:21:36.078Z,21.10
2022-08-05T06:24:11.889Z,21.20
2022-08-05T06:26:51.120Z,21.30
2022-08-05T06:29:43.007Z,21.40
2022-08-05T06:32:25.190Z,21.40
2022-08-05T06:34:56.878Z,21.40
2022-08-05T06:37:56.340Z,21.50
2022-08-05T06:40:13.995Z,21.50
2022-08-05T06:42:45.832Z,21.60
2022-08-05T06:45:20.785Z,21.70
2022-08-05T06:48:35.892Z,21.90
2022-08-05T06:50:35.486Z,21.80
2022-08-05T06:53:11.315Z,21.80
2022-08-05T06:55:41.910Z,21.70
2022-08-05T06:58:29.893Z,21.70
2022-08-05T07:01:00.876Z,21.60
2022-08-05T07:03:32.785Z,21.40
2022-08-05T07:06:06.284Z,21.30
2022-08-05T07:08:47.176Z,21.30
2022-08-05T07:11:16.193Z,21.00
2022-08-05T07:14:02.552Z,21.00
2022-08-05T07:17:56.442Z,21.00
2022-08-05T07:20:23.142Z,21.10
2022-08-05T07:22:28.250Z,21.10
2022-08-05T07:25:23.028Z,20.90
2022-08-05T07:27:57.565Z,21.00
2022-08-05T07:30:34.463Z,21.20
2022-08-05T07:33:09.474Z,21.40
2022-08-05T07:36:02.761Z,21.60
2022-08-05T07:38:33.445Z,21.70
2022-08-05T07:41:35.215Z,21.90
2022-08-05T07:43:56.396Z,22.00
2022-08-05T07:46:26.228Z,22.10
2022-08-05T07:49:02.410Z,22.30
2022-08-05T07:51:40.740Z,22.50
2022-08-05T07:54:15.829Z,22.60
2022-08-05T07:57:02.422Z,22.80
2022-08-05T07:59:40.328Z,22.90
2022-08-05T08:02:16.715Z,23.00
2022-08-05T08:04:49.147Z,23.10
2022-08-05T08:07:22.011Z,23.30
2022-08-05T08:09:52.392Z,23.40
2022-08-05T08:12:36.931Z,23.40
2022-08-05T08:15:15.658Z,23.40
2022-08-05T08:17:52.577Z,23.40
2022-08-05T08:21:00.220Z,23.40
2022-08-05T08:24:02.891Z,23.40
2022-08-05T08:26:00.896Z,23.30
2022-08-05T08:28:36.293Z,23.30
2022-08-05T08:31:08.410Z,23.40
2022-08-05T08:33:37.886Z,23.50
2022-08-05T08:36:29.405Z,23.60
2022-08-05T08:38:56.007Z,23.50
2022-08-05T08:41:50.837Z,23.30
2022-08-05T08:45:18.819Z,23.20
2022-08-05T08:47:47.607Z,23.10
2022-08-05T08:50:14.721Z,23.10
2022-08-05T08:53:12.053Z,23.20
2022-08-05T08:56:03.920Z,22.80
2022-08-05T08:58:43.174Z,22.70
2022-08-05T09:01:15.870Z,23.00
2022-08-05T09:03:48.324Z,22.90
2022-08-05T09:06:28.267Z,22.70
2022-08-05T09:09:00.498Z,22.50
2022-08-05T09:11:52.958Z,22.40
2022-08-05T09:14:56.487Z,22.40
2022-08-05T09:17:09.817Z,22.50
2022-08-05T09:20:02.871Z,22.70
2022-08-05T09:23:19.108Z,22.50
2022-08-05T09:26:01.797Z,22.40
2022-08-05T09:28:34.598Z,22.10
2022-08-05T09:32:38.742Z,21.90
2022-08-05T09:34:00.152Z,22.20
2022-08-05T09:36:54.679Z,22.40
2022-08-05T09:39:39.551Z,22.70
2022-08-05T09:42:17.468Z,22.90
2022-08-05T09:44:56.177Z,22.90
2022-08-05T09:47:48.180Z,23.10
2022-08-05T09:50:18.190Z,23.10
2022-08-05T09:53:01.460Z,23.30
2022-08-05T09:55:56.848Z,23.30
2022-08-05T09:58:22.910Z,23.30
2022-08-05T10:01:07.259Z,23.30
2022-08-05T10:03:59.606Z,23.30
2022-08-05T10:06:28.148Z,23.20
2022-08-05T10:08:56.347Z,23.00
2022-08-05T10:11:23.962Z,22.90
2022-08-05T10:13:58.365Z,22.50
2022-08-05T10:16:33.783Z,22.30
2022-08-05T10:19:08.468Z,22.50
2022-08-05T10:21:40.303Z,22.40
2022-08-05T10:24:13.535Z,22.30
2022-08-05T10:26:51.686Z,22.30
2022-08-05T10:30:05.725Z,22.30
2022-08-05T10:32:54.860Z,22.40
2022-08-05T10:35:00.553Z,22.30
2022-08-05T10:37:37.520Z,22.30
2022-08-05T10:40:46.171Z,21.90
2022-08-05T10:43:35.849Z,22.20
2022-08-05T10:46:09.464Z,22.70
2022-08-05T10:48:58.062Z,23.30
2022-08-05T10:51:57.504Z,23.60
2022-08-05T10:55:03.202Z,24.00
2022-08-05T10:57:33.981Z,23.80
2022-08-05T11:00:20.174Z,23.50
2022-08-05T11:03:24.603Z,23.50
2022-08-05T11:06:05.175Z,23.60
2022-08-05T11:08:37.386Z,23.70
2022-08-05T11:11:33.183Z,23.80
2022-08-05T11:15:01.008Z,23.70
2022-08-05T11:18:07.314Z,24.00
2022-08-05T11:20:33.398Z,24.50
2022-08-05T11:23:05.794Z,24.90
2022-08-05T11:26:04.107Z,25.50
2022-08-05T11:28:35.814Z,26.20
2022-08-05T11:31:06.205Z,26.80
2022-08-05T11:33:48.097Z,27.40
2022-08-05T11:36:34.478Z,28.00
2022-08-05T11:39:09.192Z,28.30
2022-08-05T11:42:00.639Z,28.70
2022-08-05T11:44:40.316Z,29.10
2022-08-05T11:47:11.029Z,28.80
2022-08-05T11:49:43.281Z,28.70
2022-08-05T11:52:29.297Z,28.10
2022-08-05T11:54:58.533Z,28.50
2022-08-05T11:57:30.703Z,29.10
2022-08-05T12:00:31.084Z,28.00
2022-08-05T12:02:58.161Z,27.10
2022-08-05T12:05:32.360Z,26.50
2022-08-05T12:08:10.542Z,26.80
2022-08-05T12:10:45.316Z,27.20
2022-08-05T12:13:18.837Z,27.60
2022-08-05T12:16:17.673Z,28.40
2022-08-05T12:18:49.489Z,29.20
2022-08-05T12:21:29.995Z,29.90
2022-08-05T12:24:14.258Z,30.50
2022-08-05T12:26:52.888Z,30.40
2022-08-05T12:29:24.701Z,30.00
2022-08-05T12:32:02.199Z,29.40
2022-08-05T12:34:37.311Z,28.90
2022-08-05T12:37:30.108Z,29.10
2022-08-05T12:40:03.157Z,29.80
2022-08-05T12:42:37.322Z,29.90
2022-08-05T12:45:09.841Z,29.60
2022-08-05T12:47:38.040Z,29.90
2022-08-05T12:50:17.639Z,29.50
2022-08-05T12:52:59.441Z,29.00
2022-08-05T12:55:28.981Z,28.70
2022-08-05T12:58:38.267Z,29.30
2022-08-05T13:02:02.360Z,29.80
2022-08-05T13:03:42.410Z,30.10
2022-08-05T13:06:17.794Z,29.50
2022-08-05T13:08:51.479Z,29.90
2022-08-05T13:11:59.725Z,30.70
2022-08-05T13:14:35.790Z,31.00
2022-08-05T13:17:31.590Z,30.90
2022-08-05T13:20:23.432Z,31.30
2022-08-05T13:22:53.265Z,31.80
2022-08-05T13:25:22.221Z,31.70
2022-08-05T13:28:07.924Z,30.40
2022-08-05T13:30:39.258Z,29.40
2022-08-05T13:33:06.580Z,28.60
2022-08-05T13:35:47.342Z,28.00
2022-08-05T13:38:30.507Z,28.00
2022-08-05T13:40:59.199Z,27.70
2022-08-05T13:43:45.098Z,27.80
2022-08-05T13:46:14.264Z,28.00
2022-08-05T13:49:00.270Z,27.80
2022-08-05T13:51:40.064Z,27.70
2022-08-05T13:54:12.646Z,27.70
2022-08-05T13:56:45.190Z,27.60
2022-08-05T13:59:23.705Z,27.60
2022-08-05T14:02:00.615Z,27.50
2022-08-05T14:05:00.603Z,27.30
2022-08-05T14:07:59.742Z,27.40
2022-08-05T14:10:28.878Z,27.60
2022-08-05T14:12:57.975Z,27.80
2022-08-05T14:16:04.846Z,28.00
2022-08-05T14:18:14.885Z,28.10
2022-08-05T14:20:47.711Z,27.40
2022-08-05T14:23:24.625Z,27.20
2022-08-05T14:25:58.941Z,27.20
2022-08-05T14:28:30.078Z,27.30
2022-08-05T14:30:58.095Z,27.40
2022-08-05T14:33:25.120Z,27.80
2022-08-05T14:35:54.498Z,28.10
2022-08-05T14:38:27.873Z,28.40
2022-08-05T14:41:05.603Z,29.50
2022-08-05T14:43:57.817Z,30.70
2022-08-05T14:46:21.009Z,31.20
2022-08-05T14:51:48.092Z,31.50
2022-08-05T14:54:27.602Z,31.10
2022-08-05T14:56:58.187Z,31.30
2022-08-05T14:59:29.511Z,31.70
2022-08-05T15:02:03.097Z,31.90
2022-08-05T15:04:29.956Z,32.30
2022-08-05T15:06:58.170Z,32.40
2022-08-05T15:09:53.996Z,32.00
2022-08-05T15:12:16.704Z,31.60
2022-08-05T15:14:50.146Z,32.00
2022-08-05T15:17:47.339Z,32.30
2022-08-05T15:20:18.887Z,32.00
2022-08-05T15:22:53.987Z,32.70
2022-08-05T15:25:51.029Z,33.60
2022-08-05T15:28:14.280Z,34.40
2022-08-05T15:30:43.244Z,34.80
2022-08-05T15:33:10.517Z,34.70
2022-08-05T15:35:45.083Z,34.10
2022-08-05T15:38:35.599Z,33.30
2022-08-05T15:41:21.056Z,32.60
2022-08-05T15:43:46.973Z,33.00
2022-08-05T15:46:14.414Z,33.90
2022-08-05T15:48:52.855Z,34.60
2022-08-05T15:52:04.418Z,35.10
2022-08-05T15:54:15.957Z,35.40
2022-08-05T15:56:43.645Z,35.40
2022-08-05T15:59:21.759Z,36.00
2022-08-05T16:01:53.035Z,35.70
2022-08-05T16:04:25.378Z,35.80
2022-08-05T16:06:55.488Z,36.10
2022-08-05T16:09:23.559Z,36.10
2022-08-05T16:11:53.826Z,35.60
2022-08-05T16:14:21.778Z,35.20
2022-08-05T16:16:49.902Z,35.50
2022-08-05T16:19:18.924Z,35.60
2022-08-05T16:22:00.752Z,36.00
2022-08-05T16:24:41.068Z,35.50
2022-08-05T16:27:09.033Z,35.50
2022-08-05T16:29:37.472Z,35.50
2022-08-05T16:32:09.531Z,35.80
2022-08-05T16:34:39.324Z,36.10
2022-08-05T16:38:01.964Z,36.20
2022-08-05T16:40:06.325Z,35.30
2022-08-05T16:42:35.455Z,34.80
2022-08-05T16:45:06.059Z,35.10
2022-08-05T16:47:55.452Z,35.20
2022-08-05T16:50:25.673Z,35.50
2022-08-05T16:52:52.779Z,35.70
2022-08-05T16:55:23.337Z,35.80
2022-08-05T16:58:00.476Z,36.00
2022-08-05T17:00:34.966Z,36.20
2022-08-05T17:03:15.128Z,35.90
2022-08-05T17:05:50.229Z,36.10
2022-08-05T17:08:36.473Z,36.10
2022-08-05T17:11:08.855Z,36.10
2022-08-05T17:13:41.404Z,35.50
2022-08-05T17:16:28.046Z,35.30
2022-08-05T17:18:56.084Z,34.60
2022-08-05T17:21:23.590Z,34.00
2022-08-05T17:24:04.753Z,34.30
2022-08-05T17:26:34.166Z,34.10
2022-08-05T17:29:07.395Z,33.40
2022-08-05T17:31:56.679Z,32.80
2022-08-05T17:34:30.008Z,31.90
2022-08-05T17:36:59.824Z,31.10
2022-08-05T17:39:33.255Z,30.20
2022-08-05T17:42:18.316Z,29.40
2022-08-05T17:44:50.283Z,28.70
2022-08-05T17:47:23.656Z,28.20
2022-08-05T17:50:03.650Z,27.70
2022-08-05T17:52:32.522Z,27.40
2022-08-05T17:55:00.144Z,27.10
2022-08-05T17:57:27.953Z,26.80
2022-08-05T18:00:03.272Z,26.50
2022-08-05T18:02:31.606Z,26.20
2022-08-05T18:05:02.865Z,25.90
2022-08-05T18:07:41.571Z,25.60
2022-08-05T18:10:20.554Z,25.30
2022-08-05T18:12:49.069Z,25.00
2022-08-05T18:15:16.247Z,25.00
2022-08-05T18:18:01.076Z,25.00
2022-08-05T18:20:31.955Z,24.90
2022-08-05T18:23:09.509Z,24.90
2022-08-05T18:25:44.787Z,24.80
2022-08-05T18:28:16.195Z,24.60
2022-08-05T18:30:50.891Z,24.50
2022-08-05T18:33:22.608Z,24.50
2022-08-05T18:36:03.483Z,24.40
2022-08-05T18:38:35.870Z,24.40
2022-08-05T18:41:56.501Z,24.40
2022-08-05T18:43:51.309Z,24.40
2022-08-05T18:46:20.132Z,24.30
2022-08-05T18:48:52.144Z,24.30
2022-08-05T18:52:04.848Z,24.30
2022-08-05T18:54:31.159Z,24.20
2022-08-05T18:57:01.993Z,24.20
2022-08-05T18:59:50.662Z,24.20
2022-08-05T19:02:27.857Z,24.20
2022-08-05T19:05:02.768Z,24.20
2022-08-05T19:07:47.941Z,24.10
2022-08-05T19:10:28.271Z,24.00
2022-08-05T19:12:56.777Z,23.90
2022-08-05T19:15:57.626Z,23.80
2022-08-05T19:18:20.699Z,23.80
2022-08-05T19:20:52.204Z,23.70
2022-08-05T19:24:05.806Z,23.70
2022-08-05T19:26:08.494Z,23.60
2022-08-05T19:28:41.855Z,23.60
2022-08-05T19:31:13.368Z,23.50
2022-08-05T19:33:48.632Z,23.40
2022-08-05T19:36:27.004Z,23.40
2022-08-05T19:39:01.147Z,23.30
2022-08-05T19:41:34.804Z,23.30
2022-08-05T19:44:16.710Z,23.20
2022-08-05T19:46:45.563Z,23.20
2022-08-05T19:49:17.042Z,23.10
2022-08-05T19:52:13.147Z,23.00
2022-08-05T19:54:34.284Z,23.00
2022-08-05T19:57:06.251Z,22.90
2022-08-05T20:00:02.072Z,22.90
2022-08-05T20:02:23.036Z,22.80
2022-08-05T20:04:50.313Z,22.70
2022-08-05T20:07:46.537Z,22.70
2022-08-05T20:10:14.035Z,22.60
2022-08-05T20:12:48.426Z,22.50
2022-08-05T20:15:48.892Z,22.40
2022-08-05T20:18:11.005Z,22.30
2022-08-05T20:20:55.230Z,22.20
2022-08-05T20:23:22.825Z,22.00
2022-08-05T20:25:52.077Z,22.10
2022-08-05T20:28:19.261Z,22.00
2022-08-05T20:30:46.360Z,22.10
2022-08-05T20:33:16.398Z,22.00
2022-08-05T20:35:45.257Z,22.00
2022-08-05T20:38:22.592Z,22.00
2022-08-05T20:40:55.412Z,22.00
2022-08-05T20:43:33.359Z,22.00
2022-08-05T20:46:18.411Z,21.90
2022-08-05T20:48:52.027Z,21.80
2022-08-05T20:51:19.015Z,21.60
2022-08-05T20:53:56.421Z,21.40
2022-08-05T20:56:31.911Z,21.40
2022-08-05T20:59:11.250Z,21.30
2022-08-05T21:01:46.587Z,21.40
2022-08-05T21:04:14.073Z,21.30
2022-08-05T21:06:45.359Z,21.20
2022-08-05T21:09:15.009Z,21.20
2022-08-05T21:12:07.034Z,21.20
2022-08-05T21:14:34.741Z,21.10
2022-08-05T21:17:03.029Z,21.10
2022-08-05T21:19:46.789Z,21.10
2022-08-05T21:22:18.673Z,21.00
2022-08-05T21:24:51.699Z,20.90
2022-08-05T21:27:25.317Z,20.70
2022-08-05T21:29:56.289Z,20.70
2022-08-05T21:32:26.663Z,20.70
2022-08-05T21:35:09.104Z,20.70
2022-08-05T21:37:47.204Z,20.70
2022-08-05T21:40:14.621Z,20.70
2022-08-05T21:42:45.183Z,20.70
2022-08-05T21:45:24.569Z,20.60
2022-08-05T21:47:56.976Z,20.60
2022-08-05T21:50:26.275Z,20.50
2022-08-05T21:52:53.724Z,20.50
2022-08-05T21:56:01.084Z,20.50
2022-08-05T21:58:19.387Z,20.40
2022-08-05T22:00:50.989Z,20.40
2022-08-05T22:03:18.638Z,20.40
2022-08-05T22:06:06.359Z,20.40
2022-08-05T22:08:35.463Z,20.30
2022-08-05T22:11:02.323Z,20.30
2022-08-05T22:14:06.313Z,20.30
2022-08-05T22:16:41.133Z,20.30
2022-08-05T22:19:15.010Z,20.20
2022-08-05T22:21:54.463Z,20.20
2022-08-05T22:24:52.096Z,20.10
2022-08-05T22:28:08.112Z,20.10
2022-08-05T22:30:24.924Z,20.10
2022-08-05T22:33:00.010Z,20.00
2022-08-05T22:35:26.906Z,20.00
2022-08-05T22:38:05.996Z,20.00
2022-08-05T22:40:36.930Z,19.90
2022-08-05T22:43:05.328Z,19.90
2022-08-05T22:45:32.239Z,19.90
2022-08-05T22:47:59.685Z,19.90
2022-08-05T22:50:27.887Z,19.80
2022-08-05T22:52:55.374Z,19.70
2022-08-05T22:55:23.981Z,19.50
2022-08-05T22:57:53.689Z,19.20
2022-08-05T23:00:22.675Z,19.10
2022-08-05T23:02:52.133Z,19.00
2022-08-05T23:05:21.973Z,18.90
2022-08-05T23:07:50.444Z,19.00
2022-08-05T23:10:23.581Z,19.20
2022-08-05T23:12:54.459Z,19.30
2022-08-05T23:15:26.921Z,19.30
2022-08-05T23:18:01.601Z,19.30
2022-08-05T23:20:30.352Z,19.30
2022-08-05T23:22:58.689Z,19.30
2022-08-05T23:25:54.654Z,19.20
2022-08-05T23:28:15.785Z,19.10
2022-08-05T23:30:54.074Z,19.00
2022-08-05T23:33:26.130Z,19.00
2022-08-05T23:36:10.431Z,19.10
2022-08-05T23:38:38.113Z,19.10
2022-08-05T23:41:05.056Z,19.10
2022-08-05T23:44:02.948Z,19.10
2022-08-05T23:46:21.912Z,19.10
2022-08-05T23:48:59.943Z,19.20
2022-08-05T23:51:55.118Z,19.10
2022-08-05T23:54:30.304Z,19.10
2022-08-05T23:57:04.201Z,19.00
